Friday, April 20, 2018, 10:22 AM GMT
Back to Local

CYMX, Montreal / Mirabel

Location: , , Canada Lat: 45.683
Local Time: 10:22 AM GMT (10:22 GMT) Lon: -74.033
Time Zone: GMT Elev: 269 ft

Show me the last for .
Show Decoded

2018-04-20 10:00 METAR CYMX 201000Z 30005KT 240V330 25SM BKN061 BKN240 01/M04 A3002 RMK SC5CI1
                 SLP170 =
2018-04-20 09:00 METAR CYMX 200900Z 31007KT 270V330 25SM OVC058 01/M04 A2999 RMK SC8 SLP161 =
2018-04-20 08:00 METAR CYMX 200800Z 30006KT 25SM OVC048 01/M05 A2997 RMK SC8 SLP155 =
2018-04-20 07:00 METAR CYMX 200700Z 32008KT 25SM OVC058 01/M04 A2995 RMK SC8 SLP148 =
2018-04-20 06:00 METAR CYMX 200600Z 31007KT 270V340 25SM OVC055 01/M04 A2994 RMK SC8 SLP145 =
2018-04-20 05:00 METAR CYMX 200500Z 32008KT 25SM OVC055 01/M04 A2993 RMK SC8 SLP140 =
2018-04-20 04:00 METAR CYMX 200400Z 32009KT 25SM OVC070 02/M04 A2992 RMK AC8 SLP137 =
2018-04-20 03:00 METAR CYMX 200300Z 29007KT 260V330 25SM OVC060 02/M03 A2991 RMK SC8 SLP134 =
2018-04-20 02:00 METAR CYMX 200200Z 28003KT 260V330 25SM BKN056 OVC100 02/M03 A2991 RMK SC6AC2
                 SLP133 =
2018-04-20 01:00 METAR CYMX 200100Z 31007KT 270V350 25SM FEW035 BKN100 02/M03 A2990 RMK SC1AC6
                 SLP130 =
2018-04-20 00:00 METAR CYMX 200000Z 31007KT 280V340 25SM FEW035 OVC100 03/M03 A2987 RMK SC2AC6
                 SLP121 =
2018-04-19 23:00 METAR CYMX 192300Z 31009G16KT 290V350 25SM SCT035 OVC090 04/M04 A2984 RMK SC4AC4
                 SLP110 =
2018-04-19 22:00 METAR CYMX 192200Z 32010G18KT 25SM SCT030 OVC074 04/M04 A2982 RMK SC4AC4 SLP102
                 =
2018-04-19 21:00 METAR CYMX 192100Z 32012G18KT 270V350 25SM FEW020 OVC045 04/M05 A2979 RMK CU2SC6
                 OCNL -SHSN SLP094 =
2018-04-19 20:00 METAR CYMX 192000Z 36007KT 20SM -SHSN FEW022 SCT053 OVC062 04/M02 A2978 RMK
                 SC1SC3SC5 SC TR VIS E 4 CVCTV CLDS EMBD SLP088 =
2018-04-19 19:00 METAR CYMX 191900Z 31008KT 240V340 25SM -SHSN FEW024 BKN038 OVC055 05/M03 A2976
                 RMK SC1SC5SC2 CVCTV CLD EMBD SLP082 =
2018-04-19 18:00 METAR CYMX 191800Z 29006KT 270V340 8SM -SHSN FEW015 SCT022 BKN045 OVC056 03/M02
                 A2974 RMK SF1SC2SC3SC2 CVCTV CLDS EMBD SLP078 =
2018-04-19 17:00 METAR CYMX 191700Z 34007KT 290V360 6SM -SHSN SCT035 OVC060 05/M04 A2972 RMK
                 SC3SC5 CVCTV CLDS EMBD SLP069 =
2018-04-19 16:39 METAR CYMX 191639Z 00000KT 25SM -SHSN SCT039 BKN044 OVC055 04/M04 A2972 RMK
                 SC3SC3SC2 SLP068 =
2018-04-19 16:25 METAR CYMX 191625Z 21003KT 140V310 20SM FEW035 BKN054 OVC065 04/M04 A2972 RMK
                 SC1SC6SC1 DIST SH ALQDS SLP068 =
2018-04-19 16:00 METAR CYMX 191600Z 33005KT 240V360 15SM -SHGSSN FEW035 BKN047 OVC055 04/M03
                 A2972 RMK SC2SC5SC1 CVCTV CLD EMBD SLP068 =
2018-04-19 15:12 METAR CYMX 191512Z 30003KT 260V350 25SM -SHGSSN FEW015 BKN044 BKN057 BKN240
                 05/M02 A2971 RMK SF1CU5SC2CI1 SF TR CI TR SLP067 =
2018-04-19 15:00 METAR CYMX 191500Z 32006KT 260V350 45SM -SHGS FEW015 BKN044 BKN058 04/M03 A2971
                 RMK SF1SC5SC1 CVCTV CLDS EMBD SLP067 =
2018-04-19 14:00 METAR CYMX 191400Z 32007KT 45SM BKN028 BKN150 03/M03 A2971 RMK CU6AC1 AC TR
                 SLP066 =
2018-04-19 13:49 METAR CYMX 191349Z 30006KT 250V350 45SM BKN028 BKN055 BKN150 03/M03 A2971 RMK
                 CU5SC1AC1 SC TR AC TR SLP064 =
2018-04-19 13:00 METAR CYMX 191300Z 26006KT 230V310 25SM -SHSN FEW012 FEW055 FEW070 SCT150 02/M02
                 A2971 RMK SC1SC2AC1AC1 SC TR AC TR SLP065 =
2018-04-19 12:00 METAR CYMX 191200Z CCA 26004KT 230V290 35SM -SHSN FEW022 BKN048 OVC065 01/M02
                 A2972 RMK SC1SC7SC1 SC TR CVCTV CLD EMBD VIS W-NW 10 SLP070 =
2018-04-19 11:52 METAR CYMX 191152Z 26006KT 45SM -SHSN FEW022 BKN044 OVC065 01/M03 A2972 RMK
                 SC1SC6SC1 CVCTV CLD EMBD VIS W 10 SLP069 =
2018-04-19 11:00 METAR CYMX 191100Z 24006KT 45SM FEW022 BKN047 BKN070 00/M03 A2971 RMK SC1SC5AC1
                 SLP064 =

Support USWX by starting your Amazon purchase here.